Time;durP1;ratioP1;P1;durP2;ratioP2;P2;SDS_P1;SDS_P2;PMS_P1;PMS_P2;Temp;Humidity;BMP_temperature;BMP_pressure;BME280_temperature;BME280_humidity;BME280_pressure;Samples;Min_cycle;Max_cycle;Signal;HPM_P1;HPM_P2
2021/01/05 00:01:05;;;;;;;18.90;13.30;;;4.40;54.70;;;;;;5013062;28;20401;-75
2021/01/05 00:03:31;;;;;;;20.17;13.50;;;4.50;52.90;;;;;;5013715;28;20396;-73
2021/01/05 00:05:56;;;;;;;20.63;13.97;;;4.50;52.20;;;;;;5014968;28;20443;-74
2021/01/05 00:08:22;;;;;;;21.63;14.47;;;4.50;53.00;;;;;;5013887;28;20404;-74
2021/01/05 00:10:47;;;;;;;21.33;14.20;;;4.40;54.50;;;;;;5017594;28;20381;-72
2021/01/05 00:13:13;;;;;;;19.50;13.57;;;4.40;53.20;;;;;;5015956;28;20447;-73
2021/01/05 00:15:39;;;;;;;22.00;14.60;;;4.40;54.10;;;;;;5015810;28;20444;-74
2021/01/05 00:18:04;;;;;;;20.50;14.20;;;4.30;55.00;;;;;;5016242;28;21130;-73
2021/01/05 00:20:32;;;;;;;21.30;14.60;;;4.30;54.60;;;;;;5016439;28;20385;-74
2021/01/05 00:22:58;;;;;;;18.75;13.50;;;4.40;53.70;;;;;;5016448;28;20404;-75
2021/01/05 00:25:24;;;;;;;22.60;14.00;;;4.40;53.20;;;;;;5015654;28;20520;-72
2021/01/05 00:27:50;;;;;;;20.00;14.10;;;4.30;53.40;;;;;;5016228;28;20385;-74
2021/01/05 00:30:22;;;;;;;19.57;14.20;;;4.20;54.70;;;;;;5014688;28;20411;-74
2021/01/05 00:32:49;;;;;;;22.88;14.80;;;4.30;54.90;;;;;;5013712;28;20400;-73
2021/01/05 00:35:19;;;;;;;22.10;15.30;;;4.20;56.10;;;;;;5013146;28;20425;-73
2021/01/05 00:37:44;;;;;;;20.55;14.40;;;4.10;56.90;;;;;;5014211;28;20878;-73
2021/01/05 00:40:11;;;;;;;21.40;14.73;;;4.20;55.20;;;;;;5016409;28;20389;-74
2021/01/05 00:42:36;;;;;;;24.02;16.02;;;4.20;54.60;;;;;;5015760;28;20454;-73
2021/01/05 00:45:03;;;;;;;24.65;15.50;;;4.10;55.40;;;;;;5014791;28;20638;-72
2021/01/05 00:47:29;;;;;;;23.67;16.17;;;4.10;57.30;;;;;;5016886;28;20854;-73
2021/01/05 00:49:54;;;;;;;22.63;15.05;;;4.10;57.40;;;;;;5016896;28;20411;-73
2021/01/05 00:52:20;;;;;;;24.23;15.82;;;4.20;54.80;;;;;;5015995;28;20392;-73
2021/01/05 00:54:45;;;;;;;22.90;16.00;;;4.20;56.10;;;;;;5015601;28;20391;-74
2021/01/05 00:57:11;;;;;;;26.53;16.37;;;4.10;57.30;;;;;;5016591;28;20388;-76
2021/01/05 00:59:37;;;;;;;27.40;16.50;;;4.10;57.60;;;;;;5015332;28;20401;-74
2021/01/05 01:02:04;;;;;;;23.20;15.70;;;4.20;57.10;;;;;;5016488;28;20396;-73
2021/01/05 01:04:31;;;;;;;23.70;15.97;;;4.20;54.90;;;;;;5016702;28;20424;-73
2021/01/05 01:06:57;;;;;;;27.95;17.38;;;4.30;55.00;;;;;;5016324;28;20464;-73
2021/01/05 01:09:23;;;;;;;24.90;16.48;;;4.30;54.50;;;;;;5016069;28;20878;-72
2021/01/05 01:12:17;;;;;;;26.20;17.65;;;4.20;55.50;;;;;;5016716;28;20399;-72
2021/01/05 01:14:44;;;;;;;28.45;16.63;;;4.20;56.40;;;;;;5014242;28;20404;-72
2021/01/05 01:17:10;;;;;;;26.80;16.95;;;4.20;54.80;;;;;;5015908;28;20446;-73
2021/01/05 01:19:36;;;;;;;28.10;16.30;;;4.10;55.70;;;;;;5016693;28;20393;-73
2021/01/05 01:22:02;;;;;;;28.40;17.50;;;4.10;55.70;;;;;;5016885;28;20419;-74
2021/01/05 01:24:27;;;;;;;26.85;17.45;;;4.10;56.60;;;;;;5015778;28;20389;-74
2021/01/05 01:26:53;;;;;;;26.93;16.67;;;4.00;58.10;;;;;;5015614;28;20560;-73
2021/01/05 01:29:21;;;;;;;25.55;16.35;;;4.10;55.60;;;;;;5011501;28;20392;-73
2021/01/05 01:31:48;;;;;;;28.77;17.60;;;4.10;56.60;;;;;;5010449;28;20389;-73
2021/01/05 01:34:18;;;;;;;27.83;17.23;;;4.10;58.10;;;;;;5011785;28;20377;-73
2021/01/05 01:36:54;;;;;;;28.75;17.10;;;4.10;56.30;;;;;;5014703;28;20408;-73
2021/01/05 01:39:19;;;;;;;27.02;16.77;;;4.20;55.80;;;;;;5015493;28;20385;-73
2021/01/05 01:41:45;;;;;;;25.65;15.93;;;4.20;55.70;;;;;;5016957;28;20400;-73
2021/01/05 01:44:23;;;;;;;27.27;16.20;;;4.30;54.40;;;;;;5017382;28;20439;-73
2021/01/05 01:46:52;;;;;;;28.08;17.55;;;4.20;55.30;;;;;;5017446;28;20408;-73
2021/01/05 01:49:18;;;;;;;26.67;17.23;;;4.10;57.10;;;;;;5014164;28;20400;-73
2021/01/05 01:51:44;;;;;;;27.90;17.17;;;4.20;57.20;;;;;;5017554;28;20399;-73
2021/01/05 01:54:27;;;;;;;25.75;16.60;;;4.40;54.60;;;;;;5017144;28;20455;-73
2021/01/05 01:57:24;;;;;;;24.60;15.85;;;4.40;53.90;;;;;;5017270;28;20404;-72
2021/01/05 02:00:23;;;;;;;25.90;16.17;;;4.40;53.10;;;;;;5013905;28;20407;-72
2021/01/05 02:03:10;;;;;;;23.58;15.60;;;4.30;53.40;;;;;;5010716;28;20468;-73
2021/01/05 02:05:55;;;;;;;27.20;15.85;;;4.40;53.20;;;;;;5013731;28;20431;-72
2021/01/05 02:09:00;;;;;;;24.90;16.05;;;4.40;53.70;;;;;;5014627;28;20874;-72
2021/01/05 02:11:46;;;;;;;25.77;17.33;;;4.40;53.10;;;;;;5014253;28;20389;-72
2021/01/05 02:14:53;;;;;;;26.35;16.95;;;4.20;55.80;;;;;;5012415;28;20450;-73
2021/01/05 02:17:37;;;;;;;26.60;16.73;;;4.20;55.40;;;;;;4970436;28;20393;-73
2021/01/05 02:20:11;;;;;;;30.15;18.67;;;4.30;54.20;;;;;;5013985;28;20380;-72
2021/01/05 02:23:01;;;;;;;26.92;16.73;;;4.20;55.60;;;;;;5014397;28;20396;-74
2021/01/05 02:25:27;;;;;;;24.77;16.02;;;4.20;56.00;;;;;;5015306;28;20515;-74
2021/01/05 02:28:01;;;;;;;24.93;16.63;;;4.30;54.30;;;;;;5015039;28;20479;-73
2021/01/05 02:30:45;;;;;;;25.98;15.27;;;4.30;53.90;;;;;;5014405;28;20399;-73
2021/01/05 02:33:32;;;;;;;26.80;17.37;;;4.20;53.90;;;;;;5014840;28;20592;-72
2021/01/05 02:36:26;;;;;;;26.05;16.65;;;4.30;53.80;;;;;;5014254;28;20388;-74
2021/01/05 02:39:26;;;;;;;26.30;17.20;;;4.30;53.60;;;;;;5013076;28;20392;-75
2021/01/05 02:42:07;;;;;;;26.23;16.50;;;4.30;53.90;;;;;;4959447;28;20444;-73
2021/01/05 02:44:57;;;;;;;23.85;16.10;;;4.40;53.40;;;;;;4994257;28;20401;-74
2021/01/05 02:47:38;;;;;;;27.37;16.40;;;4.40;53.30;;;;;;4995556;28;20481;-73
2021/01/05 02:50:19;;;;;;;26.30;16.05;;;4.40;52.30;;;;;;4997038;28;20474;-73
2021/01/05 02:53:08;;;;;;;26.48;16.02;;;4.30;53.50;;;;;;5013735;28;20381;-75
2021/01/05 02:55:51;;;;;;;24.95;15.95;;;4.40;52.70;;;;;;5013150;28;20882;-73
2021/01/05 02:58:29;;;;;;;24.13;15.10;;;4.40;52.20;;;;;;5013749;28;20576;-73
2021/01/05 03:01:29;;;;;;;26.48;15.23;;;4.40;51.90;;;;;;5013542;28;20447;-74
2021/01/05 03:03:55;;;;;;;24.52;15.90;;;4.30;52.40;;;;;;5013487;28;20488;-73
2021/01/05 03:06:32;;;;;;;24.67;15.40;;;4.20;53.60;;;;;;5013341;28;20531;-73
2021/01/05 03:09:31;;;;;;;24.90;14.70;;;4.20;54.40;;;;;;5012583;28;20397;-74
2021/01/05 03:12:12;;;;;;;24.97;16.10;;;4.20;53.60;;;;;;5013621;28;20892;-73
2021/01/05 03:15:05;;;;;;;24.52;15.70;;;4.20;54.00;;;;;;5013411;28;20859;-73
2021/01/05 03:17:34;;;;;;;25.42;15.65;;;4.20;53.40;;;;;;5012741;28;20878;-72
2021/01/05 03:20:11;;;;;;;27.75;15.80;;;4.30;53.10;;;;;;5012981;28;20385;-73
2021/01/05 03:22:48;;;;;;;24.83;15.50;;;4.20;52.00;;;;;;5013012;28;20376;-73
2021/01/05 03:25:16;;;;;;;25.58;16.20;;;4.20;53.50;;;;;;5002805;28;20495;-73
2021/01/05 03:27:41;;;;;;;28.73;15.80;;;4.20;53.60;;;;;;5013094;28;20392;-72
2021/01/05 03:30:12;;;;;;;27.67;16.00;;;4.30;53.20;;;;;;5012938;28;20384;-73
2021/01/05 03:32:38;;;;;;;25.37;16.30;;;4.30;52.40;;;;;;5013116;28;20681;-73
2021/01/05 03:35:04;;;;;;;24.13;15.63;;;4.20;53.20;;;;;;5012863;28;20389;-72
2021/01/05 03:37:30;;;;;;;23.33;15.38;;;4.20;54.30;;;;;;5010080;28;20404;-73
2021/01/05 03:39:55;;;;;;;25.92;16.38;;;4.30;54.50;;;;;;5012650;28;20393;-73
2021/01/05 03:42:21;;;;;;;23.52;15.35;;;4.40;53.10;;;;;;5012735;28;20385;-72
2021/01/05 03:44:46;;;;;;;24.27;15.20;;;4.30;52.40;;;;;;5012835;28;20392;-73
2021/01/05 03:47:12;;;;;;;25.70;16.50;;;4.20;54.80;;;;;;5012488;28;20419;-72
2021/01/05 03:49:38;;;;;;;25.37;16.07;;;4.30;53.60;;;;;;5012449;28;20404;-72
2021/01/05 03:52:03;;;;;;;23.60;15.30;;;4.40;51.90;;;;;;5004061;28;20451;-72
2021/01/05 03:54:29;;;;;;;22.23;14.33;;;4.40;51.60;;;;;;5012470;28;20885;-73
2021/01/05 03:56:54;;;;;;;23.10;15.25;;;4.40;51.60;;;;;;5010732;28;20502;-72
2021/01/05 03:59:20;;;;;;;24.58;14.95;;;4.30;51.60;;;;;;5012256;28;20401;-73
2021/01/05 04:01:50;;;;;;;22.23;15.00;;;4.30;52.40;;;;;;5012593;28;20431;-73
2021/01/05 04:04:16;;;;;;;24.88;15.02;;;4.20;53.10;;;;;;5012287;28;20396;-73
2021/01/05 04:06:41;;;;;;;27.30;16.00;;;4.10;55.70;;;;;;5010376;28;20431;-74
2021/01/05 04:09:07;;;;;;;25.13;16.00;;;4.30;53.70;;;;;;5012077;28;20392;-72
2021/01/05 04:11:32;;;;;;;26.43;14.80;;;4.30;52.90;;;;;;5000875;28;20383;-72
2021/01/05 04:13:58;;;;;;;24.93;16.00;;;4.30;52.90;;;;;;4992775;28;20390;-73
2021/01/05 04:16:23;;;;;;;25.27;15.57;;;4.30;53.50;;;;;;4992364;28;20444;-73
2021/01/05 04:18:49;;;;;;;25.27;14.87;;;4.40;52.30;;;;;;4992168;28;20395;-72
2021/01/05 04:21:14;;;;;;;24.80;15.43;;;4.30;52.50;;;;;;5010933;28;20458;-73
2021/01/05 04:23:40;;;;;;;25.10;15.05;;;4.30;53.30;;;;;;5012259;28;20858;-72
2021/01/05 04:26:08;;;;;;;28.40;15.63;;;4.30;52.30;;;;;;5012234;28;20491;-72
2021/01/05 04:28:34;;;;;;;25.98;16.10;;;4.40;52.70;;;;;;5011945;28;20396;-72
2021/01/05 04:30:59;;;;;;;28.35;16.60;;;4.30;53.60;;;;;;5012354;28;20913;-73
2021/01/05 04:33:25;;;;;;;26.35;16.73;;;4.20;54.60;;;;;;5011673;28;20412;-73
2021/01/05 04:35:50;;;;;;;28.05;17.35;;;4.20;54.50;;;;;;5011623;28;20396;-72
2021/01/05 04:38:16;;;;;;;23.97;15.63;;;4.20;55.00;;;;;;5011637;28;20809;-72
2021/01/05 04:40:46;;;;;;;25.30;15.70;;;4.30;54.10;;;;;;5011226;28;20870;-72
2021/01/05 04:43:16;;;;;;;26.98;16.40;;;4.40;53.30;;;;;;5011579;28;20408;-72
2021/01/05 04:45:57;;;;;;;27.10;16.10;;;4.40;52.60;;;;;;5011685;28;20417;-71
2021/01/05 04:48:29;;;;;;;27.55;16.52;;;4.30;53.90;;;;;;5010908;28;20891;-73
2021/01/05 04:50:59;;;;;;;26.53;16.00;;;4.20;54.80;;;;;;5012051;28;20492;-73
2021/01/05 04:53:31;;;;;;;25.00;16.45;;;4.40;53.10;;;;;;5014703;28;20468;-72
2021/01/05 04:56:10;;;;;;;28.30;17.27;;;4.40;52.80;;;;;;5014073;28;20786;-72
2021/01/05 04:58:45;;;;;;;24.40;15.65;;;4.40;53.50;;;;;;4994991;28;20864;-73
2021/01/05 05:01:19;;;;;;;26.35;15.82;;;4.30;54.00;;;;;;4994925;28;20417;-72
2021/01/05 05:04:06;;;;;;;27.48;17.42;;;4.20;54.90;;;;;;5014432;28;20758;-72
2021/01/05 05:06:46;;;;;;;25.40;16.15;;;4.40;53.70;;;;;;5015003;28;20412;-73
2021/01/05 05:09:23;;;;;;;28.88;16.40;;;4.50;51.90;;;;;;5014845;28;20415;-72
2021/01/05 05:12:08;;;;;;;30.42;17.02;;;4.50;53.00;;;;;;5015067;28;20381;-74
2021/01/05 05:14:59;;;;;;;27.73;16.57;;;4.40;53.50;;;;;;5015406;28;20730;-74
2021/01/05 05:17:56;;;;;;;26.58;16.60;;;4.30;54.80;;;;;;5003928;28;20843;-73
2021/01/05 05:20:54;;;;;;;29.00;17.05;;;4.40;54.00;;;;;;5016643;28;20377;-73
2021/01/05 05:23:38;;;;;;;26.00;16.42;;;4.40;53.60;;;;;;5016193;28;20851;-74
2021/01/05 05:26:25;;;;;;;26.17;16.23;;;4.40;54.40;;;;;;5015992;28;20524;-73
2021/01/05 05:28:53;;;;;;;29.40;18.03;;;4.30;54.60;;;;;;5015480;28;20385;-74
2021/01/05 05:31:23;;;;;;;28.63;16.30;;;4.20;56.30;;;;;;5015077;28;20474;-73
2021/01/05 05:33:52;;;;;;;27.95;16.10;;;4.40;53.10;;;;;;5017645;28;20397;-72
2021/01/05 05:36:32;;;;;;;31.70;16.90;;;4.40;53.80;;;;;;5017149;28;20403;-72
2021/01/05 05:39:26;;;;;;;29.38;16.83;;;4.50;52.60;;;;;;5015226;28;20385;-72
2021/01/05 05:42:03;;;;;;;31.57;17.20;;;4.50;52.90;;;;;;5016099;28;20827;-73
2021/01/05 05:44:45;;;;;;;29.90;17.80;;;4.40;53.70;;;;;;5016022;28;20403;-73
2021/01/05 05:47:24;;;;;;;31.80;17.00;;;4.30;55.00;;;;;;5014767;28;20393;-73
2021/01/05 05:49:50;;;;;;;27.23;17.40;;;4.50;53.60;;;;;;5014672;28;20408;-72
2021/01/05 05:52:40;;;;;;;30.73;17.67;;;4.50;53.50;;;;;;5016372;28;20898;-72
2021/01/05 05:55:37;;;;;;;29.98;17.27;;;4.50;53.10;;;;;;5011876;28;20380;-71
2021/01/05 05:58:04;;;;;;;32.92;18.92;;;4.50;52.80;;;;;;5009437;28;20794;-73
2021/01/05 06:00:35;;;;;;;27.67;17.45;;;4.40;53.70;;;;;;5009888;28;20766;-72
2021/01/05 06:03:02;;;;;;;31.80;17.52;;;4.50;54.30;;;;;;5010646;28;20741;-72
2021/01/05 06:05:32;;;;;;;30.77;18.30;;;4.30;55.00;;;;;;5010292;28;20408;-72
2021/01/05 06:07:58;;;;;;;33.03;19.25;;;4.40;54.10;;;;;;5010269;28;20396;-73
2021/01/05 06:10:24;;;;;;;31.02;18.83;;;4.30;54.30;;;;;;5009950;28;20377;-72
2021/01/05 06:12:51;;;;;;;31.27;18.30;;;4.30;55.20;;;;;;5008150;28;20400;-74
2021/01/05 06:15:17;;;;;;;32.85;17.92;;;4.30;56.30;;;;;;5010313;28;20759;-72
2021/01/05 06:17:43;;;;;;;33.17;18.77;;;4.40;54.80;;;;;;5010430;28;20388;-73
2021/01/05 06:20:10;;;;;;;36.28;20.25;;;4.30;55.90;;;;;;5010030;28;20412;-72
2021/01/05 06:22:35;;;;;;;38.33;19.85;;;4.40;54.30;;;;;;5010218;28;20472;-73
2021/01/05 06:25:02;;;;;;;35.27;18.83;;;4.40;55.20;;;;;;5010276;28;20412;-72
2021/01/05 06:27:28;;;;;;;35.42;18.10;;;4.60;54.10;;;;;;5008704;28;20527;-73
2021/01/05 06:29:53;;;;;;;39.80;19.52;;;4.50;53.80;;;;;;5009846;28;20424;-72
2021/01/05 06:32:19;;;;;;;34.97;18.80;;;4.60;53.90;;;;;;5010001;28;20381;-72
2021/01/05 06:34:44;;;;;;;35.25;18.67;;;4.60;52.80;;;;;;5009951;28;20385;-74
2021/01/05 06:37:10;;;;;;;38.20;19.10;;;4.60;53.40;;;;;;5009918;28;20388;-73
2021/01/05 06:39:35;;;;;;;33.70;17.60;;;4.50;54.00;;;;;;5009643;28;20932;-74
2021/01/05 06:42:01;;;;;;;34.90;18.10;;;4.60;53.90;;;;;;5009593;28;20397;-72
2021/01/05 06:44:26;;;;;;;36.07;19.23;;;4.70;52.90;;;;;;5014894;28;20388;-73
2021/01/05 06:46:53;;;;;;;41.17;19.70;;;4.50;54.80;;;;;;5014177;28;20409;-73
2021/01/05 06:49:19;;;;;;;36.03;19.80;;;4.50;55.60;;;;;;5015984;28;20380;-72
2021/01/05 06:51:44;;;;;;;37.75;19.05;;;4.30;56.70;;;;;;5017000;28;20381;-75
2021/01/05 06:54:10;;;;;;;33.93;18.97;;;4.40;55.70;;;;;;5017280;28;20431;-73
2021/01/05 06:56:53;;;;;;;33.83;19.45;;;4.50;55.70;;;;;;5018163;28;20411;-73
2021/01/05 06:59:20;;;;;;;33.60;17.88;;;4.70;52.80;;;;;;5016814;28;20438;-74
2021/01/05 07:01:58;;;;;;;35.30;18.58;;;4.70;52.80;;;;;;5018003;28;20397;-74
2021/01/05 07:04:24;;;;;;;34.05;18.55;;;4.50;54.30;;;;;;5015257;28;20393;-73
2021/01/05 07:06:50;;;;;;;36.40;18.70;;;4.50;54.40;;;;;;5012542;28;20461;-72
2021/01/05 07:09:17;;;;;;;34.13;18.33;;;4.60;53.30;;;;;;5010572;28;20399;-72
2021/01/05 07:11:43;;;;;;;37.08;19.52;;;4.50;53.90;;;;;;5012338;28;20802;-72
2021/01/05 07:14:11;;;;;;;36.83;18.65;;;4.50;55.30;;;;;;5012711;28;20397;-72
2021/01/05 07:16:37;;;;;;;33.80;18.52;;;4.60;53.30;;;;;;5012977;28;20867;-73
2021/01/05 07:19:02;;;;;;;35.20;19.10;;;4.60;54.10;;;;;;5012415;28;20396;-71
2021/01/05 07:21:28;;;;;;;35.50;18.37;;;4.60;54.20;;;;;;5012590;28;20389;-73
2021/01/05 07:23:53;;;;;;;31.37;18.10;;;4.60;53.60;;;;;;5011575;28;20487;-72
2021/01/05 07:26:19;;;;;;;32.13;18.30;;;4.70;53.40;;;;;;5011476;28;20495;-72
2021/01/05 07:28:44;;;;;;;34.37;18.50;;;4.60;52.70;;;;;;5012314;28;20866;-71
2021/01/05 07:31:10;;;;;;;38.92;19.55;;;4.60;53.60;;;;;;5012773;28;20411;-72
2021/01/05 07:33:37;;;;;;;32.35;17.95;;;4.50;54.50;;;;;;5012685;28;20503;-73
2021/01/05 07:36:05;;;;;;;40.90;19.90;;;4.50;54.00;;;;;;5012483;28;20384;-74
2021/01/05 07:38:31;;;;;;;37.53;19.33;;;4.50;54.70;;;;;;5009892;28;20417;-72
2021/01/05 07:40:57;;;;;;;37.70;20.38;;;4.50;55.80;;;;;;5011892;28;20758;-74
2021/01/05 07:43:22;;;;;;;34.42;18.75;;;4.30;56.50;;;;;;4992806;28;20759;-74
2021/01/05 07:45:48;;;;;;;38.63;19.05;;;4.40;56.50;;;;;;4993495;28;20967;-72
2021/01/05 07:48:13;;;;;;;37.10;19.58;;;4.50;55.40;;;;;;4993578;28;20445;-73
2021/01/05 07:50:39;;;;;;;35.60;19.40;;;4.50;55.20;;;;;;4993186;28;20434;-74
2021/01/05 07:53:04;;;;;;;36.87;18.87;;;4.50;54.40;;;;;;5012385;28;20428;-73
2021/01/05 07:55:32;;;;;;;37.13;19.37;;;4.40;55.70;;;;;;5014166;28;20399;-74
2021/01/05 07:57:58;;;;;;;35.95;18.85;;;4.40;56.00;;;;;;5014963;28;20462;-73
2021/01/05 08:00:28;;;;;;;36.00;18.00;;;4.50;56.40;;;;;;5012260;28;20483;-73
2021/01/05 08:02:56;;;;;;;38.40;19.42;;;4.50;55.20;;;;;;5012394;28;20419;-73
2021/01/05 08:05:27;;;;;;;38.83;19.02;;;4.50;54.60;;;;;;5013444;28;20405;-71
2021/01/05 08:07:53;;;;;;;42.05;20.40;;;4.50;55.60;;;;;;5014860;28;20472;-74
2021/01/05 08:10:32;;;;;;;55.38;20.17;;;4.40;56.70;;;;;;5013407;28;20381;-73
2021/01/05 08:12:59;;;;;;;36.63;19.80;;;4.40;55.80;;;;;;5014982;28;20484;-74
2021/01/05 08:15:27;;;;;;;40.85;19.75;;;4.40;55.80;;;;;;5014901;28;20401;-73
2021/01/05 08:17:53;;;;;;;43.90;20.88;;;4.40;56.80;;;;;;5016994;28;20390;-73
2021/01/05 08:20:21;;;;;;;41.72;19.25;;;4.40;56.10;;;;;;5017695;28;20419;-72
2021/01/05 08:22:47;;;;;;;42.20;19.52;;;4.50;56.20;;;;;;5011123;28;20398;-71
2021/01/05 08:25:15;;;;;;;33.88;19.15;;;4.50;55.70;;;;;;5003055;28;20479;-71
2021/01/05 08:27:42;;;;;;;33.20;18.10;;;4.60;54.50;;;;;;5014616;28;20407;-72
2021/01/05 08:30:08;;;;;;;39.90;19.80;;;4.60;54.20;;;;;;5014553;28;20396;-73
2021/01/05 08:32:33;;;;;;;40.10;19.52;;;4.60;54.20;;;;;;5015131;28;20384;-71
2021/01/05 08:34:59;;;;;;;40.23;20.20;;;4.50;55.20;;;;;;5015541;28;20400;-71
2021/01/05 08:37:24;;;;;;;40.83;20.23;;;4.50;55.70;;;;;;5016109;28;20400;-71
2021/01/05 08:39:50;;;;;;;41.30;20.98;;;4.60;55.80;;;;;;5014857;28;20404;-72
2021/01/05 08:42:15;;;;;;;41.72;21.52;;;4.60;55.10;;;;;;5015467;28;20393;-72
2021/01/05 08:44:43;;;;;;;39.67;20.00;;;4.50;55.80;;;;;;5015904;28;20524;-71
2021/01/05 08:47:09;;;;;;;41.63;20.48;;;4.50;57.70;;;;;;5015298;28;20431;-71
2021/01/05 08:49:34;;;;;;;40.65;19.42;;;4.60;55.70;;;;;;5016096;28;20401;-73
2021/01/05 08:52:00;;;;;;;41.53;20.23;;;4.80;53.40;;;;;;5014913;28;20403;-75
2021/01/05 08:54:26;;;;;;;35.53;19.20;;;4.80;53.00;;;;;;5014916;28;20954;-73
2021/01/05 08:56:56;;;;;;;37.47;19.50;;;4.90;52.40;;;;;;5014109;28;20400;-74
2021/01/05 08:59:22;;;;;;;38.83;21.08;;;4.80;52.40;;;;;;5013031;28;20484;-72
2021/01/05 09:01:48;;;;;;;38.77;19.50;;;4.80;54.50;;;;;;5014978;28;20812;-73
2021/01/05 09:04:14;;;;;;;35.08;19.17;;;4.70;52.80;;;;;;5014773;28;20921;-73
2021/01/05 09:06:39;;;;;;;36.97;20.15;;;4.60;55.40;;;;;;5013575;28;20417;-72
2021/01/05 09:09:05;;;;;;;38.60;19.30;;;4.80;53.40;;;;;;5014354;28;20427;-72
2021/01/05 09:11:31;;;;;;;35.90;20.20;;;4.80;52.80;;;;;;5013490;28;20534;-73
2021/01/05 09:13:56;;;;;;;38.78;19.92;;;4.70;54.00;;;;;;5013540;28;20404;-73
2021/01/05 09:16:30;;;;;;;34.07;19.50;;;4.60;55.70;;;;;;5013916;28;20407;-72
2021/01/05 09:18:57;;;;;;;33.95;18.45;;;4.80;53.60;;;;;;5014104;28;20965;-73
2021/01/05 09:21:24;;;;;;;36.05;19.98;;;4.90;53.40;;;;;;5011868;28;20495;-73
2021/01/05 09:23:55;;;;;;;32.80;18.77;;;4.90;52.00;;;;;;5014216;28;20405;-73
2021/01/05 09:26:23;;;;;;;36.97;18.63;;;4.90;51.00;;;;;;5009344;28;20471;-73
2021/01/05 09:28:49;;;;;;;37.15;18.10;;;4.90;51.10;;;;;;5006895;28;20403;-73
2021/01/05 09:31:15;;;;;;;36.03;18.80;;;4.80;52.30;;;;;;5011040;28;20401;-72
2021/01/05 09:33:41;;;;;;;35.90;19.00;;;4.70;53.90;;;;;;5011809;28;20735;-72
2021/01/05 09:36:08;;;;;;;37.15;19.05;;;4.70;53.30;;;;;;5009923;28;20408;-73
2021/01/05 09:38:33;;;;;;;33.83;18.45;;;4.80;53.20;;;;;;5010630;28;20482;-73
2021/01/05 09:40:59;;;;;;;33.67;18.50;;;4.80;52.90;;;;;;5010163;28;20854;-72
2021/01/05 09:43:25;;;;;;;36.97;18.67;;;4.80;52.70;;;;;;5009439;28;20432;-72
2021/01/05 09:45:50;;;;;;;35.07;19.07;;;4.80;52.80;;;;;;5010062;28;20734;-72
2021/01/05 09:48:17;;;;;;;37.07;19.67;;;4.90;51.40;;;;;;5010162;28;20446;-72
2021/01/05 09:50:44;;;;;;;36.80;20.10;;;4.90;52.10;;;;;;5009862;28;20401;-72
2021/01/05 09:53:11;;;;;;;38.22;20.65;;;4.80;52.60;;;;;;5010554;28;20448;-73
2021/01/05 09:55:37;;;;;;;37.90;19.73;;;4.70;53.40;;;;;;5009170;28;20798;-73
2021/01/05 09:58:04;;;;;;;34.45;18.10;;;4.70;52.50;;;;;;5009877;28;20483;-73
2021/01/05 10:00:29;;;;;;;37.92;19.95;;;4.60;53.30;;;;;;5009441;28;20405;-73
2021/01/05 10:02:55;;;;;;;37.67;19.83;;;4.50;54.50;;;;;;5010856;28;20397;-72
2021/01/05 10:05:21;;;;;;;38.30;20.10;;;4.50;55.50;;;;;;5009721;28;20695;-73
2021/01/05 10:07:47;;;;;;;39.38;20.20;;;4.50;56.30;;;;;;5010219;28;20427;-73
2021/01/05 10:10:25;;;;;;;42.88;20.65;;;4.60;55.70;;;;;;5009755;28;20488;-72
2021/01/05 10:12:51;;;;;;;43.33;20.80;;;4.70;54.70;;;;;;5010415;28;20448;-72
2021/01/05 10:15:18;;;;;;;38.47;20.40;;;4.70;56.00;;;;;;5010327;28;20466;-73
2021/01/05 10:17:44;;;;;;;34.58;19.92;;;4.90;53.40;;;;;;5010518;28;20384;-72
2021/01/05 10:20:11;;;;;;;36.22;20.08;;;5.00;51.60;;;;;;5009309;28;20407;-73
2021/01/05 10:22:38;;;;;;;41.75;20.35;;;5.00;52.00;;;;;;5012358;28;20417;-72
2021/01/05 10:25:05;;;;;;;36.65;20.38;;;5.00;52.00;;;;;;5014884;28;20932;-72
2021/01/05 10:27:31;;;;;;;37.65;18.45;;;5.00;52.50;;;;;;5016272;28;20408;-71
2021/01/05 10:29:57;;;;;;;40.28;19.92;;;5.00;51.20;;;;;;5015476;28;20385;-73
2021/01/05 10:32:23;;;;;;;44.03;19.92;;;5.10;50.90;;;;;;5016702;28;20900;-72
2021/01/05 10:34:49;;;;;;;38.17;20.05;;;5.20;51.00;;;;;;5016683;28;20405;-72
2021/01/05 10:37:14;;;;;;;39.20;20.17;;;5.20;51.10;;;;;;5016724;28;20399;-72
2021/01/05 10:39:40;;;;;;;38.30;20.27;;;5.20;50.50;;;;;;5016671;28;20432;-71
2021/01/05 10:42:05;;;;;;;43.03;20.80;;;5.30;49.90;;;;;;5016867;28;20396;-71
2021/01/05 10:44:31;;;;;;;41.15;20.83;;;5.20;51.30;;;;;;5016562;28;20389;-71
2021/01/05 10:47:04;;;;;;;42.15;21.48;;;5.30;50.00;;;;;;5015362;28;20454;-72
2021/01/05 10:49:30;;;;;;;40.78;21.67;;;5.30;50.30;;;;;;5012769;28;20400;-73
2021/01/05 10:51:58;;;;;;;39.50;21.50;;;5.30;50.30;;;;;;5013443;28;20898;-73
2021/01/05 10:54:29;;;;;;;43.55;20.92;;;5.20;49.60;;;;;;5011167;28;20408;-72
2021/01/05 10:57:00;;;;;;;42.95;22.42;;;5.00;50.90;;;;;;5013425;28;20416;-72
2021/01/05 10:59:27;;;;;;;44.78;22.10;;;4.90;52.40;;;;;;5012423;28;20817;-72
2021/01/05 11:01:55;;;;;;;41.13;21.65;;;4.80;54.00;;;;;;5013451;28;20472;-73
2021/01/05 11:04:22;;;;;;;46.13;22.92;;;4.80;53.40;;;;;;5012751;28;20451;-74
2021/01/05 11:06:52;;;;;;;43.63;22.08;;;4.90;53.80;;;;;;5007375;28;20444;-74
2021/01/05 11:09:18;;;;;;;42.90;21.97;;;4.90;53.30;;;;;;5013348;28;20758;-71
2021/01/05 11:11:44;;;;;;;40.67;21.40;;;5.00;53.30;;;;;;5011786;28;20488;-72
2021/01/05 11:14:10;;;;;;;43.20;22.27;;;5.00;53.10;;;;;;5012639;28;20464;-71
2021/01/05 11:16:35;;;;;;;40.33;22.40;;;5.20;51.10;;;;;;5012974;28;20790;-73
2021/01/05 11:19:01;;;;;;;40.70;20.97;;;5.10;52.50;;;;;;5012217;28;20904;-72
2021/01/05 11:21:26;;;;;;;42.92;21.60;;;5.10;51.60;;;;;;5012309;28;20451;-72
2021/01/05 11:23:52;;;;;;;46.65;21.63;;;5.00;52.10;;;;;;5011392;28;20416;-72
2021/01/05 11:26:17;;;;;;;44.70;22.67;;;4.90;53.00;;;;;;5012238;28;20419;-71
2021/01/05 11:28:43;;;;;;;45.50;23.30;;;4.80;53.90;;;;;;5012464;28;20707;-71
2021/01/05 11:31:08;;;;;;;46.93;23.90;;;4.80;54.80;;;;;;4994162;28;20459;-73
2021/01/05 11:33:34;;;;;;;50.27;24.13;;;4.80;55.80;;;;;;5009360;28;20411;-72
2021/01/05 11:36:00;;;;;;;47.10;22.80;;;4.90;54.60;;;;;;5012081;28;20471;-71
2021/01/05 11:38:25;;;;;;;44.58;22.88;;;4.90;53.90;;;;;;5011593;28;20420;-71
2021/01/05 11:40:51;;;;;;;42.78;22.27;;;4.90;54.70;;;;;;5011933;28;20404;-71
2021/01/05 11:43:16;;;;;;;44.30;23.13;;;4.90;54.50;;;;;;5012378;28;20421;-75
2021/01/05 11:45:42;;;;;;;49.08;24.33;;;4.90;54.40;;;;;;5012473;28;20414;-72
2021/01/05 11:48:08;;;;;;;48.40;23.20;;;4.90;54.30;;;;;;5011780;28;20462;-74
2021/01/05 11:50:34;;;;;;;51.50;24.83;;;5.00;52.60;;;;;;5012090;28;20407;-71
2021/01/05 11:52:59;;;;;;;46.03;23.65;;;5.00;53.20;;;;;;5012354;28;20377;-72
2021/01/05 11:55:25;;;;;;;43.97;22.67;;;5.10;53.40;;;;;;5012667;28;20479;-72
2021/01/05 11:57:50;;;;;;;44.03;20.67;;;5.10;51.20;;;;;;5012553;28;20476;-72
2021/01/05 12:00:19;;;;;;;45.07;22.17;;;4.80;53.10;;;;;;5011606;28;20393;-71
2021/01/05 12:02:44;;;;;;;47.83;22.65;;;4.80;53.80;;;;;;5012375;28;20795;-72
2021/01/05 12:05:14;;;;;;;42.77;23.13;;;4.70;55.00;;;;;;5011456;28;20425;-71
2021/01/05 12:07:40;;;;;;;45.50;22.63;;;4.70;55.70;;;;;;5010839;28;20396;-73
2021/01/05 12:10:07;;;;;;;45.25;22.40;;;4.80;54.80;;;;;;5010252;28;20389;-72
2021/01/05 12:12:33;;;;;;;46.33;22.52;;;4.80;54.40;;;;;;5011000;28;20389;-72
2021/01/05 12:14:58;;;;;;;42.07;21.83;;;4.90;53.50;;;;;;5012016;28;20381;-71
2021/01/05 12:17:25;;;;;;;38.73;21.13;;;5.00;52.70;;;;;;5011656;28;20937;-72
2021/01/05 12:19:51;;;;;;;42.15;20.80;;;5.00;53.00;;;;;;5012107;28;20399;-72
2021/01/05 12:22:17;;;;;;;42.90;21.57;;;5.00;53.30;;;;;;5012283;28;20389;-71
2021/01/05 12:24:44;;;;;;;37.08;20.60;;;5.00;51.90;;;;;;5012070;28;20392;-71
2021/01/05 12:27:12;;;;;;;40.10;21.50;;;5.00;51.90;;;;;;5011663;28;20412;-72
2021/01/05 12:29:41;;;;;;;41.65;21.40;;;5.00;52.80;;;;;;5011061;28;20743;-72
2021/01/05 12:32:13;;;;;;;41.07;22.07;;;5.10;52.50;;;;;;5009547;28;20389;-71
2021/01/05 12:34:45;;;;;;;41.63;21.90;;;5.10;52.00;;;;;;5009739;28;20397;-72
2021/01/05 12:37:14;;;;;;;42.85;22.25;;;5.00;53.00;;;;;;5011464;28;20393;-71
2021/01/05 12:39:40;;;;;;;44.17;22.00;;;5.10;52.60;;;;;;5011174;28;20870;-72
2021/01/05 12:42:09;;;;;;;40.87;22.30;;;5.20;51.70;;;;;;5011333;28;20475;-71
2021/01/05 12:44:35;;;;;;;38.55;20.30;;;5.30;52.10;;;;;;5011470;28;20431;-72
2021/01/05 12:47:01;;;;;;;38.67;21.63;;;5.40;51.90;;;;;;5011186;28;20455;-72
2021/01/05 12:49:26;;;;;;;40.37;22.33;;;5.50;52.50;;;;;;5009794;28;20393;-71